createdAt,value
2022-10-20T00:03:47.481Z,15.32
2022-10-20T00:08:50.231Z,11.55
2022-10-20T00:13:54.338Z,11.35
2022-10-20T00:18:58.212Z,11.25
2022-10-20T00:24:01.838Z,9.98
2022-10-20T00:29:05.078Z,10.25
2022-10-20T00:34:07.574Z,10.93
2022-10-20T00:39:09.752Z,9.77
2022-10-20T00:44:49.523Z,9.15
2022-10-20T00:49:52.243Z,10.30
2022-10-20T00:54:54.529Z,10.00
2022-10-20T00:59:56.886Z,8.32
2022-10-20T01:04:59.345Z,9.05
2022-10-20T01:10:02.955Z,9.02
2022-10-20T01:15:33.237Z,8.32
2022-10-20T01:20:56.426Z,9.00
2022-10-20T01:26:32.483Z,7.72
2022-10-20T01:31:49.341Z,8.52
2022-10-20T01:37:05.314Z,7.80
2022-10-20T01:42:20.286Z,9.23
2022-10-20T01:47:25.791Z,9.48
2022-10-20T01:52:29.576Z,8.93
2022-10-20T01:57:56.493Z,9.65
2022-10-20T02:03:20.894Z,7.55
2022-10-20T02:08:35.141Z,8.93
2022-10-20T02:13:40.142Z,8.75
2022-10-20T02:18:44.445Z,8.70
2022-10-20T02:23:50.079Z,9.10
2022-10-20T02:29:01.135Z,9.20
2022-10-20T02:34:04.183Z,9.68
2022-10-20T02:39:06.780Z,9.23
2022-10-20T02:44:09.186Z,9.77
2022-10-20T02:49:11.405Z,10.10
2022-10-20T02:54:13.685Z,9.15
2022-10-20T02:59:20.082Z,8.32
2022-10-20T03:04:22.369Z,8.07
2022-10-20T03:09:24.666Z,9.32
2022-10-20T03:14:26.852Z,7.90
2022-10-20T03:19:29.042Z,8.40
2022-10-20T03:24:31.320Z,8.32
2022-10-20T03:29:33.599Z,9.15
2022-10-20T03:34:35.819Z,7.97
2022-10-20T03:39:38.015Z,9.00
2022-10-20T03:44:40.394Z,9.02
2022-10-20T03:49:42.706Z,9.23
2022-10-20T03:54:44.922Z,9.75
2022-10-20T03:59:47.282Z,9.65
2022-10-20T04:04:49.485Z,9.52
2022-10-20T04:09:51.769Z,9.13
2022-10-20T04:14:54.130Z,9.15
2022-10-20T04:19:56.328Z,8.40
2022-10-20T04:24:58.764Z,9.30
2022-10-20T04:30:01.268Z,9.60
2022-10-20T04:35:04.088Z,9.05
2022-10-20T04:40:07.531Z,9.65
2022-10-20T04:45:10.278Z,9.15
2022-10-20T04:50:12.681Z,8.90
2022-10-20T04:55:15.535Z,8.82
2022-10-20T05:00:17.791Z,13.48
2022-10-20T05:05:19.975Z,10.55
2022-10-20T05:10:22.356Z,11.05
2022-10-20T05:15:24.551Z,10.55
2022-10-20T05:20:26.749Z,10.73
2022-10-20T05:25:36.551Z,10.38
2022-10-20T05:30:39.226Z,11.65
2022-10-20T05:35:41.721Z,10.45
2022-10-20T05:40:44.147Z,11.35
2022-10-20T05:45:46.323Z,11.40
2022-10-20T05:50:48.524Z,10.60
2022-10-20T05:55:50.737Z,14.07
2022-10-20T06:00:54.240Z,10.60
2022-10-20T06:06:00.418Z,12.00
2022-10-20T06:11:04.603Z,11.75
2022-10-20T06:16:09.735Z,12.25
2022-10-20T06:21:23.395Z,11.20
2022-10-20T06:26:30.082Z,11.00
2022-10-20T06:31:33.926Z,10.95
2022-10-20T06:36:38.316Z,10.73
2022-10-20T06:41:40.681Z,10.90
2022-10-20T06:46:42.900Z,9.98
2022-10-20T06:51:45.302Z,11.73
2022-10-20T06:56:47.655Z,10.52
2022-10-20T07:01:50.103Z,10.77
2022-10-20T07:06:52.329Z,10.85
2022-10-20T07:11:54.634Z,10.40
2022-10-20T07:16:56.971Z,9.07
2022-10-20T07:21:59.189Z,8.95
2022-10-20T07:27:01.381Z,9.40
2022-10-20T07:32:03.634Z,8.07
2022-10-20T07:37:05.958Z,7.75
2022-10-20T07:42:08.398Z,7.68
2022-10-20T07:47:10.726Z,7.97
2022-10-20T07:52:13.119Z,8.00
2022-10-20T07:57:15.529Z,7.88
2022-10-20T08:02:18.131Z,7.55
2022-10-20T08:07:20.326Z,8.32
2022-10-20T08:12:22.570Z,8.35
2022-10-20T08:17:25.875Z,6.38
2022-10-20T08:22:28.108Z,6.50
2022-10-20T08:27:31.357Z,7.53
2022-10-20T08:32:33.974Z,6.22
2022-10-20T08:37:37.326Z,5.82
2022-10-20T08:42:45.446Z,6.20
2022-10-20T08:47:50.001Z,6.40
2022-10-20T08:52:56.659Z,6.88
2022-10-20T08:58:03.453Z,6.30
2022-10-20T09:03:25.023Z,6.85
2022-10-20T09:08:31.492Z,7.13
2022-10-20T09:13:34.661Z,7.13
2022-10-20T09:18:37.125Z,6.20
2022-10-20T09:23:45.370Z,6.88
2022-10-20T09:29:12.028Z,6.65
2022-10-20T09:34:34.742Z,6.22
2022-10-20T09:39:54.920Z,4.80
2022-10-20T09:45:01.952Z,5.22
2022-10-20T09:50:09.286Z,4.57
2022-10-20T09:55:34.450Z,4.88
2022-10-20T10:00:49.637Z,5.03
2022-10-20T10:05:59.924Z,5.40
2022-10-20T10:11:14.656Z,5.15
2022-10-20T10:16:20.751Z,5.47
2022-10-20T10:21:23.400Z,5.68
2022-10-20T10:26:43.576Z,5.47
2022-10-20T10:31:57.714Z,5.35
2022-10-20T10:37:00.292Z,6.13
2022-10-20T10:42:39.837Z,5.32
2022-10-20T10:48:09.194Z,6.03
2022-10-20T10:53:20.224Z,5.53
2022-10-20T10:58:25.559Z,6.43
2022-10-20T11:04:03.088Z,6.10
2022-10-20T11:09:49.401Z,5.90
2022-10-20T11:15:47.205Z,5.78
2022-10-20T11:21:09.976Z,5.32
2022-10-20T11:26:29.151Z,5.78
2022-10-20T11:36:47.960Z,5.78
2022-10-20T11:41:52.731Z,6.00
2022-10-20T11:47:09.186Z,5.32
2022-10-20T11:52:48.740Z,6.47
2022-10-20T11:58:03.014Z,5.57
2022-10-20T12:03:38.871Z,5.30
2022-10-20T12:09:02.795Z,5.40
2022-10-20T12:14:17.316Z,5.60
2022-10-20T12:19:30.026Z,4.82
2022-10-20T12:24:40.883Z,4.75
2022-10-20T12:29:43.024Z,5.10
2022-10-20T12:34:45.511Z,4.93
2022-10-20T12:39:48.277Z,5.10
2022-10-20T12:44:51.277Z,4.70
2022-10-20T12:50:01.818Z,4.40
2022-10-20T12:55:03.973Z,4.65
2022-10-20T13:00:08.287Z,4.35
2022-10-20T13:05:10.436Z,4.22
2022-10-20T13:10:30.481Z,4.80
2022-10-20T13:15:59.147Z,4.00
2022-10-20T13:21:26.539Z,4.60
2022-10-20T13:26:45.714Z,4.53
2022-10-20T13:32:23.572Z,4.38
2022-10-20T13:37:40.548Z,4.25
2022-10-20T13:42:57.317Z,4.15
2022-10-20T13:48:11.579Z,6.22
2022-10-20T13:53:26.284Z,5.22
2022-10-20T13:58:28.698Z,5.25
2022-10-20T14:03:33.229Z,4.40
2022-10-20T14:08:44.226Z,4.72
2022-10-20T14:13:47.048Z,5.43
2022-10-20T14:19:13.412Z,4.38
2022-10-20T14:24:34.527Z,4.53
2022-10-20T14:29:40.385Z,4.75
2022-10-20T14:34:58.174Z,4.80
2022-10-20T14:40:02.937Z,5.18
2022-10-20T14:45:05.844Z,5.38
2022-10-20T14:50:19.361Z,4.90
2022-10-20T14:55:35.538Z,4.43
2022-10-20T15:00:37.956Z,5.63
2022-10-20T15:05:45.581Z,5.13
2022-10-20T15:10:48.381Z,4.63
2022-10-20T15:15:51.057Z,5.38
2022-10-20T15:20:54.623Z,5.43
2022-10-20T15:26:03.293Z,5.78
2022-10-20T15:31:28.688Z,5.70
2022-10-20T15:36:34.189Z,5.30
2022-10-20T15:41:37.292Z,5.18
2022-10-20T15:46:39.574Z,5.65
2022-10-20T15:51:44.877Z,5.35
2022-10-20T15:56:47.571Z,5.32
2022-10-20T16:01:49.935Z,6.15
2022-10-20T16:06:57.699Z,5.55
2022-10-20T16:12:02.594Z,5.82
2022-10-20T16:17:05.022Z,5.10
2022-10-20T16:22:07.481Z,5.18
2022-10-20T16:27:10.114Z,5.70
2022-10-20T16:32:12.449Z,5.60
2022-10-20T16:37:14.834Z,5.82
2022-10-20T16:42:17.118Z,5.80
2022-10-20T16:47:19.445Z,6.50
2022-10-20T16:52:21.750Z,7.25
2022-10-20T16:57:23.951Z,8.05
2022-10-20T17:02:26.146Z,8.07
2022-10-20T17:07:28.377Z,8.43
2022-10-20T17:12:30.629Z,8.30
2022-10-20T17:17:32.839Z,7.47
2022-10-20T17:22:35.515Z,8.23
2022-10-20T17:27:38.003Z,7.72
2022-10-20T17:32:40.426Z,7.85
2022-10-20T17:37:42.622Z,7.32
2022-10-20T17:42:45.045Z,8.70
2022-10-20T17:47:47.298Z,11.82
2022-10-20T17:52:49.658Z,10.10
2022-10-20T17:57:52.329Z,10.80
2022-10-20T18:02:54.594Z,9.05
2022-10-20T18:07:56.951Z,9.65
2022-10-20T18:13:00.085Z,9.27
2022-10-20T18:18:02.493Z,11.38
2022-10-20T18:23:04.703Z,10.02
2022-10-20T18:28:07.061Z,10.25
2022-10-20T18:33:09.611Z,9.40
2022-10-20T18:38:11.825Z,12.07
2022-10-20T18:43:14.026Z,12.52
2022-10-20T18:48:16.967Z,13.35
2022-10-20T18:53:19.324Z,12.75
2022-10-20T18:58:21.873Z,13.50
2022-10-20T19:03:24.363Z,16.15
2022-10-20T19:08:26.828Z,16.90
2022-10-20T19:13:30.078Z,13.50
2022-10-20T19:18:32.637Z,14.35
2022-10-20T19:23:37.945Z,14.18
2022-10-20T19:28:44.401Z,14.25
2022-10-20T19:33:48.789Z,15.52
2022-10-20T19:38:51.253Z,14.43
2022-10-20T19:43:53.826Z,15.95
2022-10-20T19:48:57.797Z,13.70
2022-10-20T19:54:00.569Z,15.02
2022-10-20T19:59:04.615Z,15.45
2022-10-20T20:04:07.184Z,13.95
2022-10-20T20:09:10.798Z,15.82
2022-10-20T20:14:15.882Z,16.90
2022-10-20T20:19:18.285Z,16.25
2022-10-20T20:24:20.632Z,15.85
2022-10-20T20:29:23.007Z,15.40
2022-10-20T20:34:25.416Z,15.70
2022-10-20T20:39:27.813Z,15.80
2022-10-20T20:44:30.032Z,16.67
2022-10-20T20:49:32.311Z,15.13
2022-10-20T20:54:34.490Z,17.73
2022-10-20T20:59:36.907Z,15.85
2022-10-20T21:04:39.166Z,15.45
2022-10-20T21:09:41.561Z,14.88
2022-10-20T21:14:44.051Z,14.90
2022-10-20T21:19:46.239Z,15.13
2022-10-20T21:24:48.501Z,14.90
2022-10-20T21:29:51.519Z,14.88
2022-10-20T21:34:55.767Z,17.27
2022-10-20T21:39:57.950Z,17.63
2022-10-20T21:45:00.119Z,15.70
2022-10-20T21:50:02.413Z,14.57
2022-10-20T21:55:05.399Z,15.70
2022-10-20T22:00:09.386Z,14.68
2022-10-20T22:05:11.784Z,17.23
2022-10-20T22:10:14.320Z,14.10
2022-10-20T22:15:16.879Z,14.00
2022-10-20T22:20:19.623Z,15.10
2022-10-20T22:25:22.097Z,13.35
2022-10-20T22:30:24.239Z,12.90
2022-10-20T22:35:26.730Z,13.05
2022-10-20T22:40:28.925Z,11.98
2022-10-20T22:45:32.563Z,11.85
2022-10-20T22:50:34.828Z,11.80
2022-10-20T22:55:37.294Z,11.25
2022-10-20T23:00:40.803Z,13.10
2022-10-20T23:05:43.180Z,12.13
2022-10-20T23:10:45.484Z,11.70
2022-10-20T23:15:52.649Z,13.70
2022-10-20T23:20:57.374Z,12.07
2022-10-20T23:26:03.662Z,12.63
2022-10-20T23:31:18.749Z,12.23
2022-10-20T23:36:21.367Z,12.20
2022-10-20T23:41:23.638Z,12.95
2022-10-20T23:46:26.006Z,12.20
2022-10-20T23:51:28.531Z,12.55
2022-10-20T23:56:30.779Z,12.98
